createdAt,value
2018-09-06T00:01:43.390Z,18.17
2018-09-06T00:04:12.334Z,18.30
2018-09-06T00:06:41.259Z,17.07
2018-09-06T00:09:10.246Z,17.73
2018-09-06T00:11:38.912Z,17.90
2018-09-06T00:14:07.529Z,18.67
2018-09-06T00:16:36.123Z,19.10
2018-09-06T00:19:04.759Z,17.37
2018-09-06T00:21:33.322Z,18.40
2018-09-06T00:24:01.950Z,19.53
2018-09-06T00:26:30.635Z,18.20
2018-09-06T00:28:59.523Z,18.97
2018-09-06T00:31:28.334Z,18.40
2018-09-06T00:33:57.004Z,19.07
2018-09-06T00:36:25.770Z,18.90
2018-09-06T00:38:54.376Z,19.65
2018-09-06T00:41:23.251Z,17.87
2018-09-06T00:43:52.296Z,19.87
2018-09-06T00:46:21.461Z,18.90
2018-09-06T00:48:50.174Z,18.20
2018-09-06T00:51:18.843Z,17.83
2018-09-06T00:53:48.069Z,18.07
2018-09-06T00:56:16.720Z,18.10
2018-09-06T00:58:45.326Z,17.70
2018-09-06T01:01:14.106Z,17.70
2018-09-06T01:03:42.907Z,19.03
2018-09-06T01:06:11.853Z,17.73
2018-09-06T01:08:40.410Z,17.60
2018-09-06T01:11:09.012Z,17.83
2018-09-06T01:13:37.719Z,17.67
2018-09-06T01:16:06.722Z,17.80
2018-09-06T01:18:35.365Z,17.60
2018-09-06T01:21:04.032Z,16.33
2018-09-06T01:23:32.779Z,17.47
2018-09-06T01:26:01.611Z,18.43
2018-09-06T01:28:30.350Z,17.70
2018-09-06T01:30:59.207Z,18.23
2018-09-06T01:33:29.454Z,17.73
2018-09-06T01:36:03.633Z,16.63
2018-09-06T01:38:32.363Z,17.57
2018-09-06T01:41:01.153Z,17.90
2018-09-06T01:43:30.214Z,17.20
2018-09-06T01:45:59.191Z,18.10
2018-09-06T01:48:28.296Z,16.23
2018-09-06T01:50:57.668Z,17.20
2018-09-06T01:53:26.450Z,18.30
2018-09-06T01:55:55.103Z,17.43
2018-09-06T01:58:24.109Z,17.13
2018-09-06T02:00:53.183Z,16.40
2018-09-06T02:03:21.712Z,18.27
2018-09-06T02:05:50.268Z,17.30
2018-09-06T02:08:18.809Z,16.90
2018-09-06T02:10:47.371Z,16.80
2018-09-06T02:13:15.896Z,16.70
2018-09-06T02:15:44.608Z,16.70
2018-09-06T02:18:13.314Z,16.83
2018-09-06T02:20:41.921Z,18.80
2018-09-06T02:23:10.691Z,18.37
2018-09-06T02:25:39.280Z,18.40
2018-09-06T02:28:07.997Z,17.40
2018-09-06T02:30:36.898Z,16.97
2018-09-06T02:33:05.805Z,17.77
2018-09-06T02:35:34.777Z,16.97
2018-09-06T02:38:03.530Z,15.97
2018-09-06T02:40:38.254Z,16.33
2018-09-06T02:43:08.986Z,17.07
2018-09-06T02:45:38.345Z,16.97
2018-09-06T02:48:07.080Z,16.90
2018-09-06T02:50:41.273Z,17.95
2018-09-06T02:53:10.018Z,18.27
2018-09-06T02:55:38.986Z,17.30
2018-09-06T02:58:07.525Z,16.10
2018-09-06T03:00:37.436Z,18.17
2018-09-06T03:03:05.899Z,17.00
2018-09-06T03:05:34.314Z,16.83
2018-09-06T03:08:02.867Z,17.13
2018-09-06T03:10:40.888Z,17.80
2018-09-06T03:13:09.674Z,17.57
2018-09-06T03:15:38.367Z,17.60
2018-09-06T03:18:07.388Z,17.70
2018-09-06T03:20:36.473Z,17.87
2018-09-06T03:23:05.976Z,17.70
2018-09-06T03:25:34.848Z,17.30
2018-09-06T03:28:04.102Z,17.70
2018-09-06T03:30:33.061Z,17.20
2018-09-06T03:33:01.938Z,16.93
2018-09-06T03:35:31.136Z,19.17
2018-09-06T03:37:59.821Z,18.10
2018-09-06T03:40:28.608Z,17.83
2018-09-06T03:42:57.417Z,18.63
2018-09-06T03:45:26.267Z,16.43
2018-09-06T03:47:55.126Z,17.30
2018-09-06T03:50:23.848Z,17.50
2018-09-06T03:52:52.378Z,17.77
2018-09-06T03:55:20.892Z,17.47
2018-09-06T03:57:49.641Z,18.47
2018-09-06T04:00:18.112Z,16.53
2018-09-06T04:02:46.564Z,16.43
2018-09-06T04:05:15.262Z,17.30
2018-09-06T04:07:43.958Z,19.27
2018-09-06T04:10:12.640Z,17.77
2018-09-06T04:12:41.485Z,18.33
2018-09-06T04:15:10.157Z,16.87
2018-09-06T04:17:38.645Z,19.03
2018-09-06T04:20:08.075Z,18.02
2018-09-06T04:22:40.982Z,18.33
2018-09-06T04:25:09.679Z,18.60
2018-09-06T04:27:38.567Z,18.00
2018-09-06T04:30:08.677Z,16.80
2018-09-06T04:32:37.426Z,17.70
2018-09-06T04:35:06.633Z,17.57
2018-09-06T04:37:35.450Z,17.73
2018-09-06T04:40:04.160Z,17.03
2018-09-06T04:42:33.150Z,20.20
2018-09-06T04:45:02.078Z,17.93
2018-09-06T04:47:30.728Z,16.83
2018-09-06T04:49:59.344Z,17.70
2018-09-06T04:52:27.883Z,17.73
2018-09-06T04:54:56.472Z,18.00
2018-09-06T04:57:25.423Z,16.97
2018-09-06T04:59:54.206Z,18.00
2018-09-06T05:02:23.035Z,18.50
2018-09-06T05:04:52.040Z,17.80
2018-09-06T05:07:20.666Z,17.83
2018-09-06T05:09:49.188Z,17.90
2018-09-06T05:12:18.233Z,16.90
2018-09-06T05:14:46.876Z,18.53
2018-09-06T05:17:15.736Z,19.27
2018-09-06T05:19:44.554Z,18.23
2018-09-06T05:22:13.084Z,18.57
2018-09-06T05:28:03.020Z,18.13
2018-09-06T05:30:32.146Z,18.03
2018-09-06T05:33:01.597Z,18.20
2018-09-06T05:35:30.522Z,18.03
2018-09-06T05:37:59.854Z,18.80
2018-09-06T05:40:28.854Z,17.67
2018-09-06T05:42:59.303Z,18.87
2018-09-06T05:45:28.051Z,17.87
2018-09-06T05:47:57.401Z,18.87
2018-09-06T05:50:26.419Z,18.23
2018-09-06T05:52:55.230Z,18.20
2018-09-06T05:55:24.015Z,17.73
2018-09-06T05:57:53.329Z,16.83
2018-09-06T06:00:27.738Z,17.77
2018-09-06T06:02:58.281Z,18.20
2018-09-06T06:05:30.950Z,18.47
2018-09-06T06:08:10.785Z,18.60
2018-09-06T06:10:39.978Z,19.37
2018-09-06T06:13:09.387Z,18.80
2018-09-06T06:15:38.303Z,18.92
2018-09-06T06:18:07.616Z,19.67
2018-09-06T06:20:36.734Z,19.47
2018-09-06T06:23:06.113Z,18.60
2018-09-06T06:25:35.254Z,19.90
2018-09-06T06:28:04.413Z,20.12
2018-09-06T06:30:33.474Z,20.63
2018-09-06T06:33:02.269Z,20.70
2018-09-06T06:35:31.796Z,19.23
2018-09-06T06:38:01.059Z,21.00
2018-09-06T06:40:29.833Z,21.20
2018-09-06T06:42:58.561Z,19.90
2018-09-06T06:45:27.005Z,21.07
2018-09-06T06:47:55.482Z,20.23
2018-09-06T06:50:24.258Z,21.63
2018-09-06T06:52:52.986Z,22.07
2018-09-06T06:55:21.672Z,20.47
2018-09-06T06:57:50.597Z,20.72
2018-09-06T07:00:21.897Z,20.35
2018-09-06T07:02:51.844Z,21.00
2018-09-06T07:05:20.781Z,19.90
2018-09-06T07:07:50.676Z,19.60
2018-09-06T07:10:19.555Z,19.70
2018-09-06T07:12:48.516Z,22.00
2018-09-06T07:15:17.715Z,22.07
2018-09-06T07:17:46.297Z,20.47
2018-09-06T07:20:15.288Z,19.53
2018-09-06T07:22:44.237Z,20.83
2018-09-06T07:25:13.233Z,20.80
2018-09-06T07:27:42.229Z,20.37
2018-09-06T07:30:14.994Z,20.07
2018-09-06T07:32:44.368Z,19.57
2018-09-06T07:35:13.930Z,19.82
2018-09-06T07:37:43.031Z,18.83
2018-09-06T07:40:11.914Z,19.07
2018-09-06T07:42:40.805Z,18.93
2018-09-06T07:45:09.832Z,17.87
2018-09-06T07:47:38.479Z,16.40
2018-09-06T07:50:07.390Z,19.33
2018-09-06T07:52:36.630Z,18.60
2018-09-06T07:55:05.453Z,17.77
2018-09-06T07:57:34.206Z,17.10
2018-09-06T08:00:03.728Z,18.47
2018-09-06T08:02:32.638Z,15.57
2018-09-06T08:05:01.808Z,16.47
2018-09-06T08:07:31.009Z,16.93
2018-09-06T08:10:00.435Z,16.00
2018-09-06T08:12:29.788Z,16.80
2018-09-06T08:14:59.122Z,16.50
2018-09-06T08:17:28.140Z,16.77
2018-09-06T08:19:57.223Z,15.87
2018-09-06T08:22:26.278Z,15.60
2018-09-06T08:24:55.056Z,16.03
2018-09-06T08:27:23.933Z,16.17
2018-09-06T08:32:26.974Z,14.77
2018-09-06T08:34:55.675Z,15.63
2018-09-06T08:37:24.288Z,15.70
2018-09-06T08:39:52.975Z,14.80
2018-09-06T08:42:21.490Z,14.27
2018-09-06T08:44:50.172Z,13.90
2018-09-06T08:47:19.074Z,14.20
2018-09-06T08:49:48.108Z,13.37
2018-09-06T08:52:17.089Z,14.10
2018-09-06T08:54:45.986Z,13.30
2018-09-06T08:57:14.788Z,12.63
2018-09-06T08:59:43.641Z,12.30
2018-09-06T09:02:13.030Z,11.68
2018-09-06T09:04:42.045Z,12.60
2018-09-06T09:07:11.040Z,12.10
2018-09-06T09:09:40.030Z,12.07
2018-09-06T09:12:08.965Z,11.83
2018-09-06T09:14:37.581Z,11.30
2018-09-06T09:17:06.060Z,11.20
2018-09-06T09:19:34.847Z,10.47
2018-09-06T09:22:03.429Z,10.50
2018-09-06T09:24:31.887Z,12.43
2018-09-06T09:27:00.716Z,10.73
2018-09-06T09:29:29.498Z,10.70
2018-09-06T09:31:57.887Z,10.50
2018-09-06T09:34:26.519Z,9.30
2018-09-06T09:36:55.143Z,10.67
2018-09-06T09:39:23.676Z,9.13
2018-09-06T09:41:52.416Z,9.67
2018-09-06T09:44:20.996Z,8.53
2018-09-06T09:51:59.535Z,10.87
2018-09-06T09:54:28.135Z,10.00
2018-09-06T09:56:57.032Z,9.97
2018-09-06T09:59:27.800Z,9.70
2018-09-06T10:02:05.302Z,8.97
2018-09-06T10:04:43.576Z,8.93
2018-09-06T10:07:17.853Z,8.97
2018-09-06T10:09:47.968Z,8.53
2018-09-06T10:12:17.278Z,9.40
2018-09-06T10:14:46.197Z,8.27
2018-09-06T10:17:14.911Z,9.40
2018-09-06T10:19:44.004Z,9.53
2018-09-06T10:22:12.987Z,8.37
2018-09-06T10:24:41.556Z,9.30
2018-09-06T10:27:10.339Z,10.47
2018-09-06T10:29:39.211Z,9.85
2018-09-06T10:32:08.403Z,11.07
2018-09-06T10:34:36.885Z,10.70
2018-09-06T10:37:05.803Z,9.60
2018-09-06T10:39:34.489Z,9.27
2018-09-06T10:42:03.872Z,8.73
2018-09-06T10:44:32.958Z,8.18
2018-09-06T10:47:02.073Z,9.60
2018-09-06T10:49:31.230Z,8.93
2018-09-06T12:05:31.885Z,7.23
2018-09-06T12:08:00.781Z,14.70
2018-09-06T12:10:29.663Z,14.80
2018-09-06T12:12:59.104Z,14.90
2018-09-06T12:15:28.279Z,13.53
2018-09-06T12:18:04.872Z,17.07
2018-09-06T12:21:10.805Z,15.93
2018-09-06T12:23:41.699Z,14.43
2018-09-06T12:26:13.887Z,14.50
2018-09-06T12:31:38.659Z,15.67
2018-09-06T12:34:17.975Z,14.93
2018-09-06T12:39:41.284Z,14.70
2018-09-06T12:42:24.985Z,14.60
2018-09-06T12:45:36.487Z,14.70
2018-09-06T12:50:48.166Z,12.40
2018-09-06T12:53:17.429Z,12.20
2018-09-06T12:55:46.637Z,12.33
2018-09-06T12:58:15.870Z,13.37
2018-09-06T13:00:44.530Z,15.07
2018-09-06T13:03:13.432Z,14.03
2018-09-06T13:05:42.751Z,14.80
2018-09-06T13:08:11.618Z,14.15
2018-09-06T13:10:40.381Z,14.30
2018-09-06T13:13:09.243Z,13.43
2018-09-06T13:15:38.168Z,13.70
2018-09-06T13:18:07.039Z,13.07
2018-09-06T13:20:35.920Z,13.40
2018-09-06T13:23:04.985Z,13.70
2018-09-06T13:25:33.929Z,13.13
2018-09-06T13:28:02.878Z,13.13
2018-09-06T13:30:32.055Z,10.78
2018-09-06T13:33:08.777Z,9.30
2018-09-06T13:35:41.011Z,8.73
2018-09-06T13:38:10.607Z,9.90
2018-09-06T13:40:39.942Z,10.07
2018-09-06T13:43:09.212Z,10.07
2018-09-06T13:45:48.684Z,10.07
2018-09-06T13:48:17.904Z,10.67
2018-09-06T13:50:47.032Z,9.53
2018-09-06T13:53:16.175Z,10.07
2018-09-06T13:55:45.496Z,10.43
2018-09-06T13:58:15.290Z,11.50
2018-09-06T14:00:47.107Z,13.20
2018-09-06T14:03:16.322Z,12.80
2018-09-06T14:05:47.709Z,12.30
2018-09-06T14:08:17.253Z,13.13
2018-09-06T14:10:47.702Z,12.77
2018-09-06T14:13:16.844Z,13.30
2018-09-06T14:15:46.137Z,12.40
2018-09-06T14:18:15.949Z,10.87
2018-09-06T14:20:46.658Z,11.83
2018-09-06T14:23:15.686Z,11.77
2018-09-06T14:25:44.904Z,12.47
2018-09-06T14:28:18.964Z,12.97
2018-09-06T14:30:48.338Z,15.13
2018-09-06T14:33:17.595Z,15.97
2018-09-06T14:35:47.084Z,15.93
2018-09-06T14:38:16.605Z,14.00
2018-09-06T14:40:45.991Z,13.20
2018-09-06T14:43:16.114Z,11.77
2018-09-06T14:45:45.077Z,10.47
2018-09-06T14:48:15.526Z,10.43
2018-09-06T14:50:48.961Z,9.88
2018-09-06T14:53:18.147Z,10.43
2018-09-06T14:55:47.148Z,11.43
2018-09-06T14:58:19.366Z,10.97
2018-09-06T15:00:48.774Z,10.90
2018-09-06T15:03:20.136Z,11.20
2018-09-06T15:05:50.411Z,12.10
2018-09-06T15:08:19.366Z,11.43
2018-09-06T15:10:48.864Z,11.13
2018-09-06T15:13:18.164Z,9.50
2018-09-06T15:15:51.309Z,10.53
2018-09-06T15:18:39.420Z,10.03
2018-09-06T15:21:09.320Z,9.63
2018-09-06T15:23:38.644Z,10.00
2018-09-06T15:26:09.606Z,9.27
2018-09-06T15:28:39.151Z,9.20
2018-09-06T15:31:08.175Z,9.73
2018-09-06T15:33:37.190Z,8.60
2018-09-06T15:36:06.566Z,9.33
2018-09-06T15:38:38.245Z,8.60
2018-09-06T15:41:08.270Z,9.60
2018-09-06T15:43:38.753Z,8.93
2018-09-06T15:46:07.929Z,7.57
2018-09-06T15:48:37.379Z,7.50
2018-09-06T15:51:09.478Z,5.93
2018-09-06T15:53:39.049Z,5.90
2018-09-06T15:56:08.369Z,4.97
2018-09-06T15:58:37.560Z,5.73
2018-09-06T16:01:06.236Z,5.30
2018-09-06T16:03:34.894Z,4.90
2018-09-06T16:06:03.737Z,5.60
2018-09-06T16:08:32.831Z,4.53
2018-09-06T16:11:01.579Z,5.53
2018-09-06T16:13:30.569Z,6.50
2018-09-06T16:15:59.500Z,6.57
2018-09-06T16:18:28.257Z,8.38
2018-09-06T16:20:57.373Z,8.97
2018-09-06T16:23:26.347Z,5.57
2018-09-06T16:25:55.175Z,7.90
2018-09-06T16:28:24.083Z,7.30
2018-09-06T16:30:52.753Z,7.63
2018-09-06T16:33:21.774Z,5.95
2018-09-06T16:35:50.520Z,6.90
2018-09-06T16:38:19.303Z,6.60
2018-09-06T16:40:48.332Z,6.85
2018-09-06T16:43:17.333Z,6.77
2018-09-06T16:45:46.022Z,6.33
2018-09-06T16:48:14.841Z,6.60
2018-09-06T16:50:43.407Z,6.57
2018-09-06T16:53:12.415Z,6.90
2018-09-06T16:55:41.233Z,8.07
2018-09-06T16:58:10.095Z,7.87
2018-09-06T17:00:38.882Z,8.20
2018-09-06T17:03:08.229Z,6.80
2018-09-06T17:05:37.520Z,6.20
2018-09-06T17:08:10.138Z,7.00
2018-09-06T17:10:38.876Z,6.87
2018-09-06T17:13:07.430Z,7.00
2018-09-06T17:15:36.157Z,7.40
2018-09-06T17:18:04.706Z,7.20
2018-09-06T17:20:33.358Z,8.43
2018-09-06T17:23:02.120Z,9.20
2018-09-06T17:25:30.960Z,10.13
2018-09-06T17:27:59.733Z,10.30
2018-09-06T17:30:28.639Z,10.30
2018-09-06T17:32:57.842Z,9.90
2018-09-06T17:35:27.285Z,11.00
2018-09-06T17:37:59.923Z,11.27
2018-09-06T17:40:29.071Z,10.63
2018-09-06T17:42:58.195Z,11.90
2018-09-06T17:45:27.596Z,12.07
2018-09-06T17:47:56.615Z,11.20
2018-09-06T17:50:25.572Z,10.90
2018-09-06T17:52:54.488Z,11.27
2018-09-06T17:55:23.855Z,12.30
2018-09-06T17:57:52.937Z,13.70
2018-09-06T18:00:21.910Z,11.20
2018-09-06T18:02:51.219Z,11.83
2018-09-06T18:05:19.900Z,13.23
2018-09-06T18:07:48.856Z,11.90
2018-09-06T18:10:17.490Z,13.98
2018-09-06T18:12:46.241Z,14.00
2018-09-06T18:15:14.834Z,13.93
2018-09-06T18:17:43.687Z,12.90
2018-09-06T18:20:12.408Z,12.90
2018-09-06T18:22:41.227Z,11.17
2018-09-06T18:25:10.434Z,12.20
2018-09-06T18:27:39.570Z,13.40
2018-09-06T18:30:08.360Z,11.73
2018-09-06T18:32:37.274Z,13.03
2018-09-06T18:35:06.176Z,12.53
2018-09-06T18:37:35.072Z,12.47
2018-09-06T18:44:53.638Z,13.48
2018-09-06T18:47:22.389Z,13.60
2018-09-06T18:49:51.075Z,14.67
2018-09-06T18:52:20.043Z,14.93
2018-09-06T18:54:49.217Z,15.73
2018-09-06T18:57:18.317Z,14.73
2018-09-06T18:59:47.376Z,15.37
2018-09-06T19:02:16.258Z,15.27
2018-09-06T19:04:44.962Z,14.73
2018-09-06T19:07:14.017Z,15.40
2018-09-06T19:09:42.573Z,15.53
2018-09-06T19:12:11.791Z,14.57
2018-09-06T19:14:41.079Z,15.37
2018-09-06T19:17:12.771Z,14.50
2018-09-06T19:19:43.757Z,16.37
2018-09-06T19:22:13.947Z,16.55
2018-09-06T19:24:47.472Z,14.73
2018-09-06T19:27:17.108Z,14.80
2018-09-06T19:29:46.992Z,14.05
2018-09-06T19:32:16.261Z,13.30
2018-09-06T19:34:45.678Z,14.07
2018-09-06T19:37:14.936Z,11.93
2018-09-06T19:39:45.543Z,14.43
2018-09-06T19:42:15.160Z,14.40
2018-09-06T19:44:44.831Z,16.20
2018-09-06T19:47:13.894Z,17.50
2018-09-06T19:49:42.731Z,15.70
2018-09-06T19:52:11.729Z,15.30
2018-09-06T19:54:40.404Z,14.67
2018-09-06T19:57:09.945Z,12.77
2018-09-06T19:59:39.723Z,12.53
2018-09-06T20:02:08.688Z,12.47
2018-09-06T20:04:37.686Z,11.67
2018-09-06T20:07:06.898Z,13.87
2018-09-06T20:09:36.198Z,21.73
2018-09-06T20:12:05.419Z,15.43
2018-09-06T20:14:34.881Z,16.37
2018-09-06T20:17:05.634Z,17.20
2018-09-06T20:19:34.682Z,15.60
2018-09-06T20:22:06.357Z,16.57
2018-09-06T20:24:35.595Z,16.67
2018-09-06T20:27:04.848Z,17.53
2018-09-06T20:29:33.892Z,16.20
2018-09-06T20:32:03.445Z,14.37
2018-09-06T20:34:33.150Z,13.75
2018-09-06T20:37:04.183Z,14.70
2018-09-06T20:39:33.813Z,14.67
2018-09-06T20:42:03.279Z,15.10
2018-09-06T20:44:32.166Z,14.90
2018-09-06T20:47:01.103Z,15.30
2018-09-06T20:49:30.029Z,16.50
2018-09-06T20:51:58.626Z,16.40
2018-09-06T20:54:27.437Z,16.40
2018-09-06T20:56:56.849Z,16.93
2018-09-06T20:59:26.100Z,12.47
2018-09-06T21:02:00.812Z,13.23
2018-09-06T21:04:30.603Z,11.40
2018-09-06T21:06:59.947Z,12.60
2018-09-06T21:09:30.708Z,12.07
2018-09-06T21:12:00.042Z,10.87
2018-09-06T21:14:29.583Z,11.73
2018-09-06T21:16:58.594Z,12.17
2018-09-06T21:19:27.843Z,12.07
2018-09-06T21:21:57.243Z,11.35
2018-09-06T21:24:26.203Z,10.93
2018-09-06T21:26:55.418Z,12.70
2018-09-06T21:29:25.978Z,12.33
2018-09-06T21:31:55.752Z,13.67
2018-09-06T21:34:24.901Z,12.70
2018-09-06T21:36:53.934Z,13.77
2018-09-06T21:39:22.851Z,12.20
2018-09-06T21:41:51.471Z,12.13
2018-09-06T21:44:20.584Z,12.47
2018-09-06T21:46:49.172Z,10.73
2018-09-06T21:49:18.089Z,12.20
2018-09-06T21:51:47.101Z,11.63
2018-09-06T21:54:15.877Z,11.07
2018-09-06T21:56:44.955Z,10.60
2018-09-06T21:59:13.658Z,11.30
2018-09-06T22:01:42.407Z,11.03
2018-09-06T22:04:11.176Z,9.63
2018-09-06T22:06:40.066Z,9.97
2018-09-06T22:09:11.121Z,10.80
2018-09-06T22:11:39.955Z,10.80
2018-09-06T22:14:09.121Z,9.63
2018-09-06T22:16:37.856Z,10.93
2018-09-06T22:19:07.005Z,10.60
2018-09-06T22:21:36.700Z,10.20
2018-09-06T22:24:05.802Z,10.40
2018-09-06T22:26:34.800Z,11.03
2018-09-06T22:29:04.080Z,11.17
2018-09-06T22:31:32.738Z,9.83
2018-09-06T22:34:01.468Z,10.17
2018-09-06T22:36:30.229Z,10.70
2018-09-06T22:38:58.933Z,12.23
2018-09-06T22:41:27.434Z,12.03
2018-09-06T22:43:56.119Z,11.60
2018-09-06T22:46:25.044Z,12.53
2018-09-06T22:48:53.958Z,11.50
2018-09-06T22:51:22.839Z,11.00
2018-09-06T22:53:51.554Z,12.40
2018-09-06T22:56:20.275Z,12.07
2018-09-06T22:58:49.646Z,11.30
2018-09-06T23:01:18.533Z,11.53
2018-09-06T23:03:51.297Z,11.47
2018-09-06T23:06:20.264Z,10.57
2018-09-06T23:08:49.445Z,10.87
2018-09-06T23:11:18.985Z,9.75
2018-09-06T23:13:48.176Z,10.50
2018-09-06T23:16:17.048Z,10.70
2018-09-06T23:18:47.720Z,9.97
2018-09-06T23:21:16.990Z,10.63
2018-09-06T23:23:45.690Z,9.30
2018-09-06T23:26:14.442Z,9.70
2018-09-06T23:28:43.112Z,9.83
2018-09-06T23:31:11.693Z,9.40
2018-09-06T23:33:40.096Z,8.63
2018-09-06T23:36:08.570Z,9.30
2018-09-06T23:38:37.696Z,9.37
2018-09-06T23:41:06.650Z,8.60
2018-09-06T23:43:39.142Z,9.70
2018-09-06T23:46:08.704Z,8.40
2018-09-06T23:48:37.710Z,9.33
2018-09-06T23:51:07.000Z,9.03
2018-09-06T23:53:36.012Z,9.53
2018-09-06T23:56:05.006Z,10.20
2018-09-06T23:58:34.177Z,9.27
